sensor_id;sensor_type;location;lat;lon;timestamp;P1;durP1;ratioP1;P2;durP2;ratioP2
54993;SDS011;40891;47.242;8.648;2022-10-26T00:02:23;4.30;;;1.60;;
54993;SDS011;40891;47.242;8.648;2022-10-26T00:04:48;8.57;;;1.87;;
54993;SDS011;40891;47.242;8.648;2022-10-26T00:07:14;4.13;;;1.83;;
54993;SDS011;40891;47.242;8.648;2022-10-26T00:09:39;3.63;;;1.90;;
54993;SDS011;40891;47.242;8.648;2022-10-26T00:12:05;5.30;;;2.20;;
54993;SDS011;40891;47.242;8.648;2022-10-26T00:14:30;9.73;;;2.53;;
54993;SDS011;40891;47.242;8.648;2022-10-26T00:16:55;4.10;;;2.00;;
54993;SDS011;40891;47.242;8.648;2022-10-26T00:19:21;5.00;;;2.83;;
54993;SDS011;40891;47.242;8.648;2022-10-26T00:21:46;4.60;;;1.80;;
54993;SDS011;40891;47.242;8.648;2022-10-26T00:24:12;4.63;;;2.00;;
54993;SDS011;40891;47.242;8.648;2022-10-26T00:26:38;9.03;;;1.93;;
54993;SDS011;40891;47.242;8.648;2022-10-26T00:29:04;15.93;;;2.60;;
54993;SDS011;40891;47.242;8.648;2022-10-26T00:31:29;4.50;;;1.67;;
54993;SDS011;40891;47.242;8.648;2022-10-26T00:33:55;2.27;;;1.40;;
54993;SDS011;40891;47.242;8.648;2022-10-26T00:36:21;3.07;;;1.83;;
54993;SDS011;40891;47.242;8.648;2022-10-26T00:38:51;7.90;;;2.07;;
54993;SDS011;40891;47.242;8.648;2022-10-26T00:41:18;3.43;;;2.03;;
54993;SDS011;40891;47.242;8.648;2022-10-26T00:43:46;3.23;;;1.50;;
54993;SDS011;40891;47.242;8.648;2022-10-26T00:46:16;4.17;;;2.13;;
54993;SDS011;40891;47.242;8.648;2022-10-26T00:48:45;10.30;;;2.20;;
54993;SDS011;40891;47.242;8.648;2022-10-26T00:51:24;6.43;;;2.10;;
54993;SDS011;40891;47.242;8.648;2022-10-26T00:54:12;7.27;;;2.60;;
54993;SDS011;40891;47.242;8.648;2022-10-26T00:56:42;3.43;;;2.10;;
54993;SDS011;40891;47.242;8.648;2022-10-26T00:59:09;4.87;;;2.00;;
54993;SDS011;40891;47.242;8.648;2022-10-26T01:01:36;5.97;;;1.93;;
54993;SDS011;40891;47.242;8.648;2022-10-26T01:04:04;5.57;;;2.10;;
54993;SDS011;40891;47.242;8.648;2022-10-26T01:06:30;5.20;;;2.10;;
54993;SDS011;40891;47.242;8.648;2022-10-26T01:08:58;6.50;;;2.23;;
54993;SDS011;40891;47.242;8.648;2022-10-26T01:11:23;3.80;;;2.40;;
54993;SDS011;40891;47.242;8.648;2022-10-26T01:13:49;6.03;;;2.10;;
54993;SDS011;40891;47.242;8.648;2022-10-26T01:16:32;9.00;;;2.43;;
54993;SDS011;40891;47.242;8.648;2022-10-26T01:28:06;6.17;;;2.30;;
54993;SDS011;40891;47.242;8.648;2022-10-26T01:30:53;7.63;;;2.53;;
54993;SDS011;40891;47.242;8.648;2022-10-26T01:33:30;6.73;;;2.37;;
54993;SDS011;40891;47.242;8.648;2022-10-26T01:39:18;5.30;;;2.60;;
54993;SDS011;40891;47.242;8.648;2022-10-26T01:41:53;7.17;;;2.53;;
54993;SDS011;40891;47.242;8.648;2022-10-26T01:44:24;8.10;;;2.73;;
54993;SDS011;40891;47.242;8.648;2022-10-26T01:46:53;4.67;;;2.80;;
54993;SDS011;40891;47.242;8.648;2022-10-26T01:49:22;12.63;;;5.90;;
54993;SDS011;40891;47.242;8.648;2022-10-26T01:51:52;12.00;;;7.10;;
54993;SDS011;40891;47.242;8.648;2022-10-26T01:54:17;15.80;;;8.90;;
54993;SDS011;40891;47.242;8.648;2022-10-26T01:56:44;13.03;;;8.03;;
54993;SDS011;40891;47.242;8.648;2022-10-26T02:10:25;11.47;;;7.13;;
54993;SDS011;40891;47.242;8.648;2022-10-26T02:20:53;12.47;;;7.63;;
54993;SDS011;40891;47.242;8.648;2022-10-26T02:23:22;9.20;;;4.20;;
54993;SDS011;40891;47.242;8.648;2022-10-26T02:25:49;13.30;;;5.27;;
54993;SDS011;40891;47.242;8.648;2022-10-26T02:28:20;11.07;;;6.97;;
54993;SDS011;40891;47.242;8.648;2022-10-26T02:30:52;11.80;;;5.40;;
54993;SDS011;40891;47.242;8.648;2022-10-26T02:33:21;7.17;;;4.00;;
54993;SDS011;40891;47.242;8.648;2022-10-26T02:35:51;11.63;;;3.70;;
54993;SDS011;40891;47.242;8.648;2022-10-26T02:38:18;8.43;;;4.80;;
54993;SDS011;40891;47.242;8.648;2022-10-26T02:40:45;14.70;;;6.50;;
54993;SDS011;40891;47.242;8.648;2022-10-26T02:43:14;12.43;;;6.83;;
54993;SDS011;40891;47.242;8.648;2022-10-26T02:45:47;19.03;;;11.90;;
54993;SDS011;40891;47.242;8.648;2022-10-26T02:48:20;15.53;;;9.07;;
54993;SDS011;40891;47.242;8.648;2022-10-26T02:50:53;19.23;;;11.87;;
54993;SDS011;40891;47.242;8.648;2022-10-26T02:56:02;13.43;;;9.63;;
54993;SDS011;40891;47.242;8.648;2022-10-26T02:58:32;15.40;;;9.60;;
54993;SDS011;40891;47.242;8.648;2022-10-26T03:01:04;16.00;;;8.63;;
54993;SDS011;40891;47.242;8.648;2022-10-26T03:03:30;15.03;;;8.40;;
54993;SDS011;40891;47.242;8.648;2022-10-26T03:05:55;16.73;;;8.93;;
54993;SDS011;40891;47.242;8.648;2022-10-26T03:08:20;14.40;;;8.83;;
54993;SDS011;40891;47.242;8.648;2022-10-26T03:10:46;13.67;;;8.80;;
54993;SDS011;40891;47.242;8.648;2022-10-26T03:13:11;14.70;;;9.13;;
54993;SDS011;40891;47.242;8.648;2022-10-26T03:15:37;14.37;;;9.47;;
54993;SDS011;40891;47.242;8.648;2022-10-26T03:18:03;13.83;;;8.53;;
54993;SDS011;40891;47.242;8.648;2022-10-26T03:20:29;14.57;;;7.73;;
54993;SDS011;40891;47.242;8.648;2022-10-26T03:22:55;13.50;;;7.30;;
54993;SDS011;40891;47.242;8.648;2022-10-26T03:25:21;13.37;;;7.97;;
54993;SDS011;40891;47.242;8.648;2022-10-26T03:27:54;17.50;;;8.50;;
54993;SDS011;40891;47.242;8.648;2022-10-26T03:30:20;13.07;;;8.30;;
54993;SDS011;40891;47.242;8.648;2022-10-26T03:32:46;14.37;;;8.83;;
54993;SDS011;40891;47.242;8.648;2022-10-26T03:35:11;15.37;;;8.90;;
54993;SDS011;40891;47.242;8.648;2022-10-26T03:37:36;12.23;;;7.60;;
54993;SDS011;40891;47.242;8.648;2022-10-26T03:40:01;13.50;;;7.57;;
54993;SDS011;40891;47.242;8.648;2022-10-26T03:42:27;11.40;;;7.27;;
54993;SDS011;40891;47.242;8.648;2022-10-26T03:44:52;15.20;;;7.03;;
54993;SDS011;40891;47.242;8.648;2022-10-26T03:47:18;13.87;;;6.80;;
54993;SDS011;40891;47.242;8.648;2022-10-26T03:49:43;11.33;;;6.77;;
54993;SDS011;40891;47.242;8.648;2022-10-26T03:52:08;15.33;;;7.10;;
54993;SDS011;40891;47.242;8.648;2022-10-26T03:54:34;11.97;;;6.57;;
54993;SDS011;40891;47.242;8.648;2022-10-26T03:56:59;13.07;;;6.80;;
54993;SDS011;40891;47.242;8.648;2022-10-26T03:59:24;11.50;;;7.50;;
54993;SDS011;40891;47.242;8.648;2022-10-26T04:01:50;11.20;;;7.57;;
54993;SDS011;40891;47.242;8.648;2022-10-26T04:04:15;13.33;;;8.17;;
54993;SDS011;40891;47.242;8.648;2022-10-26T04:06:40;9.37;;;7.67;;
54993;SDS011;40891;47.242;8.648;2022-10-26T04:09:06;10.57;;;6.60;;
54993;SDS011;40891;47.242;8.648;2022-10-26T04:11:32;14.83;;;5.80;;
54993;SDS011;40891;47.242;8.648;2022-10-26T04:13:57;8.13;;;5.00;;
54993;SDS011;40891;47.242;8.648;2022-10-26T04:16:24;11.90;;;4.60;;
54993;SDS011;40891;47.242;8.648;2022-10-26T04:18:50;10.40;;;3.90;;
54993;SDS011;40891;47.242;8.648;2022-10-26T04:21:15;8.53;;;3.70;;
54993;SDS011;40891;47.242;8.648;2022-10-26T04:23:41;4.67;;;3.07;;
54993;SDS011;40891;47.242;8.648;2022-10-26T04:26:06;5.43;;;3.20;;
54993;SDS011;40891;47.242;8.648;2022-10-26T04:28:32;6.83;;;2.60;;
54993;SDS011;40891;47.242;8.648;2022-10-26T04:30:57;7.63;;;3.43;;
54993;SDS011;40891;47.242;8.648;2022-10-26T04:33:23;8.43;;;3.20;;
54993;SDS011;40891;47.242;8.648;2022-10-26T04:35:48;6.07;;;3.37;;
54993;SDS011;40891;47.242;8.648;2022-10-26T04:38:13;8.57;;;3.60;;
54993;SDS011;40891;47.242;8.648;2022-10-26T04:40:39;7.53;;;3.77;;
54993;SDS011;40891;47.242;8.648;2022-10-26T04:43:04;5.60;;;3.43;;
54993;SDS011;40891;47.242;8.648;2022-10-26T04:45:30;9.23;;;3.73;;
54993;SDS011;40891;47.242;8.648;2022-10-26T04:50:25;11.10;;;4.27;;
54993;SDS011;40891;47.242;8.648;2022-10-26T04:52:51;8.63;;;4.13;;
54993;SDS011;40891;47.242;8.648;2022-10-26T04:55:17;8.03;;;4.00;;
54993;SDS011;40891;47.242;8.648;2022-10-26T04:57:43;8.13;;;3.93;;
54993;SDS011;40891;47.242;8.648;2022-10-26T05:00:09;7.07;;;4.50;;
54993;SDS011;40891;47.242;8.648;2022-10-26T05:02:35;7.90;;;4.23;;
54993;SDS011;40891;47.242;8.648;2022-10-26T05:05:00;5.87;;;4.20;;
54993;SDS011;40891;47.242;8.648;2022-10-26T05:07:25;12.63;;;4.50;;
54993;SDS011;40891;47.242;8.648;2022-10-26T05:09:51;6.40;;;4.07;;
54993;SDS011;40891;47.242;8.648;2022-10-26T05:12:16;10.27;;;4.03;;
54993;SDS011;40891;47.242;8.648;2022-10-26T05:14:41;8.43;;;4.93;;
54993;SDS011;40891;47.242;8.648;2022-10-26T05:17:07;6.17;;;4.47;;
54993;SDS011;40891;47.242;8.648;2022-10-26T05:19:32;8.13;;;4.60;;
54993;SDS011;40891;47.242;8.648;2022-10-26T05:21:57;9.73;;;4.60;;
54993;SDS011;40891;47.242;8.648;2022-10-26T05:24:23;6.60;;;4.03;;
54993;SDS011;40891;47.242;8.648;2022-10-26T05:26:48;7.10;;;3.83;;
54993;SDS011;40891;47.242;8.648;2022-10-26T05:29:14;6.00;;;4.37;;
54993;SDS011;40891;47.242;8.648;2022-10-26T05:31:39;6.53;;;4.10;;
54993;SDS011;40891;47.242;8.648;2022-10-26T05:34:04;6.73;;;3.70;;
54993;SDS011;40891;47.242;8.648;2022-10-26T05:36:30;8.53;;;3.70;;
54993;SDS011;40891;47.242;8.648;2022-10-26T05:38:59;6.10;;;3.37;;
54993;SDS011;40891;47.242;8.648;2022-10-26T05:41:24;5.47;;;3.87;;
54993;SDS011;40891;47.242;8.648;2022-10-26T05:43:50;7.03;;;3.70;;
54993;SDS011;40891;47.242;8.648;2022-10-26T05:46:15;6.93;;;3.67;;
54993;SDS011;40891;47.242;8.648;2022-10-26T05:48:41;5.03;;;3.40;;
54993;SDS011;40891;47.242;8.648;2022-10-26T05:51:06;5.17;;;3.33;;
54993;SDS011;40891;47.242;8.648;2022-10-26T05:53:32;7.60;;;3.63;;
54993;SDS011;40891;47.242;8.648;2022-10-26T05:55:57;5.53;;;3.10;;
54993;SDS011;40891;47.242;8.648;2022-10-26T05:58:23;5.60;;;3.10;;
54993;SDS011;40891;47.242;8.648;2022-10-26T06:00:52;8.20;;;3.10;;
54993;SDS011;40891;47.242;8.648;2022-10-26T06:06:23;8.43;;;3.50;;
54993;SDS011;40891;47.242;8.648;2022-10-26T06:09:01;8.20;;;3.23;;
54993;SDS011;40891;47.242;8.648;2022-10-26T06:11:26;6.97;;;2.90;;
54993;SDS011;40891;47.242;8.648;2022-10-26T06:13:52;8.37;;;3.47;;
54993;SDS011;40891;47.242;8.648;2022-10-26T06:16:22;5.90;;;2.47;;
54993;SDS011;40891;47.242;8.648;2022-10-26T06:24:36;6.87;;;2.90;;
54993;SDS011;40891;47.242;8.648;2022-10-26T06:29:40;5.77;;;2.73;;
54993;SDS011;40891;47.242;8.648;2022-10-26T06:32:18;6.20;;;2.67;;
54993;SDS011;40891;47.242;8.648;2022-10-26T06:34:47;5.00;;;2.73;;
54993;SDS011;40891;47.242;8.648;2022-10-26T06:37:14;11.67;;;2.80;;
54993;SDS011;40891;47.242;8.648;2022-10-26T06:39:42;5.40;;;3.13;;
54993;SDS011;40891;47.242;8.648;2022-10-26T06:42:10;15.03;;;4.13;;
54993;SDS011;40891;47.242;8.648;2022-10-26T06:44:36;11.70;;;3.50;;
54993;SDS011;40891;47.242;8.648;2022-10-26T06:52:15;5.23;;;2.07;;
54993;SDS011;40891;47.242;8.648;2022-10-26T06:57:11;5.47;;;2.10;;
54993;SDS011;40891;47.242;8.648;2022-10-26T06:59:41;10.27;;;3.47;;
54993;SDS011;40891;47.242;8.648;2022-10-26T07:02:08;12.57;;;2.80;;
54993;SDS011;40891;47.242;8.648;2022-10-26T07:04:35;4.63;;;1.97;;
54993;SDS011;40891;47.242;8.648;2022-10-26T07:07:01;3.17;;;1.70;;
54993;SDS011;40891;47.242;8.648;2022-10-26T07:09:26;4.23;;;2.00;;
54993;SDS011;40891;47.242;8.648;2022-10-26T07:11:52;6.23;;;2.00;;
54993;SDS011;40891;47.242;8.648;2022-10-26T07:14:17;5.00;;;1.73;;
54993;SDS011;40891;47.242;8.648;2022-10-26T07:16:42;5.13;;;1.63;;
54993;SDS011;40891;47.242;8.648;2022-10-26T07:19:08;5.73;;;1.73;;
54993;SDS011;40891;47.242;8.648;2022-10-26T07:21:33;3.00;;;1.37;;
54993;SDS011;40891;47.242;8.648;2022-10-26T07:23:58;3.57;;;1.40;;
54993;SDS011;40891;47.242;8.648;2022-10-26T07:26:24;6.70;;;1.57;;
54993;SDS011;40891;47.242;8.648;2022-10-26T07:28:49;5.00;;;1.20;;
54993;SDS011;40891;47.242;8.648;2022-10-26T07:31:15;3.77;;;1.47;;
54993;SDS011;40891;47.242;8.648;2022-10-26T07:33:41;4.47;;;1.40;;
54993;SDS011;40891;47.242;8.648;2022-10-26T07:36:07;5.90;;;1.40;;
54993;SDS011;40891;47.242;8.648;2022-10-26T07:38:34;4.40;;;1.30;;
54993;SDS011;40891;47.242;8.648;2022-10-26T07:41:00;3.50;;;1.30;;
54993;SDS011;40891;47.242;8.648;2022-10-26T07:43:26;3.57;;;1.47;;
54993;SDS011;40891;47.242;8.648;2022-10-26T07:45:51;6.83;;;2.13;;
54993;SDS011;40891;47.242;8.648;2022-10-26T07:48:17;3.55;;;1.77;;
54993;SDS011;40891;47.242;8.648;2022-10-26T07:50:42;5.97;;;1.80;;
54993;SDS011;40891;47.242;8.648;2022-10-26T07:53:07;9.23;;;1.50;;
54993;SDS011;40891;47.242;8.648;2022-10-26T07:55:33;7.70;;;2.00;;
54993;SDS011;40891;47.242;8.648;2022-10-26T07:57:58;3.40;;;2.20;;
54993;SDS011;40891;47.242;8.648;2022-10-26T08:00:24;3.35;;;1.63;;
54993;SDS011;40891;47.242;8.648;2022-10-26T08:02:49;19.08;;;9.95;;
54993;SDS011;40891;47.242;8.648;2022-10-26T08:05:15;4.47;;;2.78;;
54993;SDS011;40891;47.242;8.648;2022-10-26T08:07:41;8.73;;;2.88;;
54993;SDS011;40891;47.242;8.648;2022-10-26T08:10:08;3.97;;;1.77;;
54993;SDS011;40891;47.242;8.648;2022-10-26T08:12:34;7.60;;;1.60;;
54993;SDS011;40891;47.242;8.648;2022-10-26T08:15:00;4.03;;;1.60;;
54993;SDS011;40891;47.242;8.648;2022-10-26T08:17:27;3.80;;;1.40;;
54993;SDS011;40891;47.242;8.648;2022-10-26T08:19:52;5.30;;;1.90;;
54993;SDS011;40891;47.242;8.648;2022-10-26T08:22:18;5.53;;;2.17;;
54993;SDS011;40891;47.242;8.648;2022-10-26T08:24:43;3.05;;;1.63;;
54993;SDS011;40891;47.242;8.648;2022-10-26T08:27:11;3.95;;;1.42;;
54993;SDS011;40891;47.242;8.648;2022-10-26T08:29:39;7.38;;;1.35;;
54993;SDS011;40891;47.242;8.648;2022-10-26T08:32:05;5.05;;;1.55;;
54993;SDS011;40891;47.242;8.648;2022-10-26T08:34:30;2.35;;;1.38;;
54993;SDS011;40891;47.242;8.648;2022-10-26T08:36:56;3.45;;;1.23;;
54993;SDS011;40891;47.242;8.648;2022-10-26T08:39:21;4.95;;;1.23;;
54993;SDS011;40891;47.242;8.648;2022-10-26T08:41:47;4.03;;;1.00;;
54993;SDS011;40891;47.242;8.648;2022-10-26T08:47:05;6.13;;;1.38;;
54993;SDS011;40891;47.242;8.648;2022-10-26T08:52:16;4.97;;;1.13;;
54993;SDS011;40891;47.242;8.648;2022-10-26T08:54:48;3.22;;;1.40;;
54993;SDS011;40891;47.242;8.648;2022-10-26T08:57:26;4.30;;;1.23;;
54993;SDS011;40891;47.242;8.648;2022-10-26T09:00:02;3.50;;;1.10;;
54993;SDS011;40891;47.242;8.648;2022-10-26T09:02:30;3.63;;;1.13;;
54993;SDS011;40891;47.242;8.648;2022-10-26T09:04:56;3.60;;;1.20;;
54993;SDS011;40891;47.242;8.648;2022-10-26T09:12:44;4.35;;;1.45;;
54993;SDS011;40891;47.242;8.648;2022-10-26T09:15:42;5.97;;;1.42;;
54993;SDS011;40891;47.242;8.648;2022-10-26T09:18:19;5.32;;;1.48;;
54993;SDS011;40891;47.242;8.648;2022-10-26T09:23:57;4.38;;;1.17;;
54993;SDS011;40891;47.242;8.648;2022-10-26T09:27:12;4.20;;;1.00;;
54993;SDS011;40891;47.242;8.648;2022-10-26T09:29:28;5.03;;;1.55;;
54993;SDS011;40891;47.242;8.648;2022-10-26T09:31:59;5.63;;;1.10;;
54993;SDS011;40891;47.242;8.648;2022-10-26T09:34:30;5.28;;;1.40;;
54993;SDS011;40891;47.242;8.648;2022-10-26T09:37:14;4.70;;;1.00;;
54993;SDS011;40891;47.242;8.648;2022-10-26T09:39:46;3.33;;;1.10;;
54993;SDS011;40891;47.242;8.648;2022-10-26T09:42:28;4.70;;;1.10;;
54993;SDS011;40891;47.242;8.648;2022-10-26T09:45:04;2.72;;;0.93;;
54993;SDS011;40891;47.242;8.648;2022-10-26T09:47:39;1.92;;;1.05;;
54993;SDS011;40891;47.242;8.648;2022-10-26T09:53:11;4.97;;;1.17;;
54993;SDS011;40891;47.242;8.648;2022-10-26T09:55:38;2.78;;;0.93;;
54993;SDS011;40891;47.242;8.648;2022-10-26T09:58:10;5.60;;;1.25;;
54993;SDS011;40891;47.242;8.648;2022-10-26T10:00:38;5.88;;;1.20;;
54993;SDS011;40891;47.242;8.648;2022-10-26T10:03:16;8.23;;;1.17;;
54993;SDS011;40891;47.242;8.648;2022-10-26T10:05:48;5.00;;;1.20;;
54993;SDS011;40891;47.242;8.648;2022-10-26T10:08:24;3.30;;;1.17;;
54993;SDS011;40891;47.242;8.648;2022-10-26T10:10:59;3.78;;;1.45;;
54993;SDS011;40891;47.242;8.648;2022-10-26T10:13:38;4.22;;;1.67;;
54993;SDS011;40891;47.242;8.648;2022-10-26T10:16:05;4.68;;;1.65;;
54993;SDS011;40891;47.242;8.648;2022-10-26T10:18:35;4.50;;;1.43;;
54993;SDS011;40891;47.242;8.648;2022-10-26T10:21:03;2.72;;;1.20;;
54993;SDS011;40891;47.242;8.648;2022-10-26T10:24:03;2.97;;;1.50;;
54993;SDS011;40891;47.242;8.648;2022-10-26T10:26:22;2.38;;;1.00;;
54993;SDS011;40891;47.242;8.648;2022-10-26T10:29:00;2.08;;;1.30;;
54993;SDS011;40891;47.242;8.648;2022-10-26T10:31:28;3.35;;;1.50;;
54993;SDS011;40891;47.242;8.648;2022-10-26T10:33:55;4.13;;;1.60;;
54993;SDS011;40891;47.242;8.648;2022-10-26T10:36:21;6.85;;;1.40;;
54993;SDS011;40891;47.242;8.648;2022-10-26T10:38:50;3.85;;;1.30;;
54993;SDS011;40891;47.242;8.648;2022-10-26T10:41:24;3.75;;;1.30;;
54993;SDS011;40891;47.242;8.648;2022-10-26T10:46:44;3.95;;;1.10;;
54993;SDS011;40891;47.242;8.648;2022-10-26T10:49:18;4.78;;;1.00;;
54993;SDS011;40891;47.242;8.648;2022-10-26T10:51:47;2.67;;;1.27;;
54993;SDS011;40891;47.242;8.648;2022-10-26T10:54:19;3.38;;;1.20;;
54993;SDS011;40891;47.242;8.648;2022-10-26T11:00:03;4.13;;;1.30;;
54993;SDS011;40891;47.242;8.648;2022-10-26T11:07:53;5.82;;;1.30;;
54993;SDS011;40891;47.242;8.648;2022-10-26T11:10:25;6.72;;;1.20;;
54993;SDS011;40891;47.242;8.648;2022-10-26T11:12:56;5.40;;;1.20;;
54993;SDS011;40891;47.242;8.648;2022-10-26T11:15:29;3.70;;;1.23;;
54993;SDS011;40891;47.242;8.648;2022-10-26T11:20:31;3.10;;;1.20;;
54993;SDS011;40891;47.242;8.648;2022-10-26T11:23:03;3.75;;;1.00;;
54993;SDS011;40891;47.242;8.648;2022-10-26T11:25:36;3.67;;;1.25;;
54993;SDS011;40891;47.242;8.648;2022-10-26T11:28:18;3.65;;;0.95;;
54993;SDS011;40891;47.242;8.648;2022-10-26T11:30:57;2.05;;;1.02;;
54993;SDS011;40891;47.242;8.648;2022-10-26T11:33:32;2.58;;;1.08;;
54993;SDS011;40891;47.242;8.648;2022-10-26T11:36:04;4.90;;;1.30;;
54993;SDS011;40891;47.242;8.648;2022-10-26T11:38:41;4.75;;;1.50;;
54993;SDS011;40891;47.242;8.648;2022-10-26T11:41:44;3.10;;;1.02;;
54993;SDS011;40891;47.242;8.648;2022-10-26T11:44:16;2.70;;;1.15;;
54993;SDS011;40891;47.242;8.648;2022-10-26T11:46:49;8.13;;;1.33;;
54993;SDS011;40891;47.242;8.648;2022-10-26T11:49:24;4.28;;;1.13;;
54993;SDS011;40891;47.242;8.648;2022-10-26T11:51:58;3.20;;;1.35;;
54993;SDS011;40891;47.242;8.648;2022-10-26T11:54:39;4.30;;;1.40;;
54993;SDS011;40891;47.242;8.648;2022-10-26T11:57:11;1.67;;;0.90;;
54993;SDS011;40891;47.242;8.648;2022-10-26T11:59:41;4.25;;;1.38;;
54993;SDS011;40891;47.242;8.648;2022-10-26T12:02:18;2.90;;;1.00;;
54993;SDS011;40891;47.242;8.648;2022-10-26T12:04:49;3.10;;;1.10;;
54993;SDS011;40891;47.242;8.648;2022-10-26T12:07:20;2.40;;;1.02;;
54993;SDS011;40891;47.242;8.648;2022-10-26T12:09:50;5.18;;;1.05;;
54993;SDS011;40891;47.242;8.648;2022-10-26T12:14:55;3.30;;;1.00;;
54993;SDS011;40891;47.242;8.648;2022-10-26T12:17:35;3.65;;;1.25;;
54993;SDS011;40891;47.242;8.648;2022-10-26T12:23:02;5.63;;;0.98;;
54993;SDS011;40891;47.242;8.648;2022-10-26T12:25:28;2.67;;;1.05;;
54993;SDS011;40891;47.242;8.648;2022-10-26T12:27:54;7.78;;;1.45;;
54993;SDS011;40891;47.242;8.648;2022-10-26T12:38:25;5.05;;;1.60;;
54993;SDS011;40891;47.242;8.648;2022-10-26T12:53:48;7.00;;;1.27;;
54993;SDS011;40891;47.242;8.648;2022-10-26T12:56:24;4.00;;;1.33;;
54993;SDS011;40891;47.242;8.648;2022-10-26T12:59:17;4.40;;;0.90;;
54993;SDS011;40891;47.242;8.648;2022-10-26T13:05:05;4.93;;;1.40;;
54993;SDS011;40891;47.242;8.648;2022-10-26T13:07:44;7.20;;;1.40;;
54993;SDS011;40891;47.242;8.648;2022-10-26T13:12:58;6.15;;;1.10;;
54993;SDS011;40891;47.242;8.648;2022-10-26T13:15:51;6.53;;;1.30;;
54993;SDS011;40891;47.242;8.648;2022-10-26T13:18:18;3.67;;;1.30;;
54993;SDS011;40891;47.242;8.648;2022-10-26T13:23:29;5.70;;;1.40;;
54993;SDS011;40891;47.242;8.648;2022-10-26T13:26:04;4.65;;;1.40;;
54993;SDS011;40891;47.242;8.648;2022-10-26T13:28:45;4.38;;;1.58;;
54993;SDS011;40891;47.242;8.648;2022-10-26T13:36:37;3.17;;;1.10;;
54993;SDS011;40891;47.242;8.648;2022-10-26T13:39:37;4.03;;;1.33;;
54993;SDS011;40891;47.242;8.648;2022-10-26T13:42:06;4.70;;;1.33;;
54993;SDS011;40891;47.242;8.648;2022-10-26T13:47:26;5.70;;;1.33;;
54993;SDS011;40891;47.242;8.648;2022-10-26T13:49:54;5.60;;;1.17;;
54993;SDS011;40891;47.242;8.648;2022-10-26T13:52:29;5.50;;;1.35;;
54993;SDS011;40891;47.242;8.648;2022-10-26T13:55:04;5.57;;;1.00;;
54993;SDS011;40891;47.242;8.648;2022-10-26T13:57:34;4.57;;;1.40;;
54993;SDS011;40891;47.242;8.648;2022-10-26T14:00:07;7.22;;;1.50;;
54993;SDS011;40891;47.242;8.648;2022-10-26T14:02:40;5.20;;;1.48;;
54993;SDS011;40891;47.242;8.648;2022-10-26T14:05:08;9.82;;;1.48;;
54993;SDS011;40891;47.242;8.648;2022-10-26T14:07:38;6.85;;;1.55;;
54993;SDS011;40891;47.242;8.648;2022-10-26T14:10:06;4.15;;;1.65;;
54993;SDS011;40891;47.242;8.648;2022-10-26T14:12:32;6.30;;;1.20;;
54993;SDS011;40891;47.242;8.648;2022-10-26T14:15:07;7.90;;;2.08;;
54993;SDS011;40891;47.242;8.648;2022-10-26T14:17:33;7.20;;;1.90;;
54993;SDS011;40891;47.242;8.648;2022-10-26T14:19:59;8.38;;;2.03;;
54993;SDS011;40891;47.242;8.648;2022-10-26T14:22:26;5.65;;;1.48;;
54993;SDS011;40891;47.242;8.648;2022-10-26T14:24:54;5.07;;;1.63;;
54993;SDS011;40891;47.242;8.648;2022-10-26T14:27:25;4.65;;;1.48;;
54993;SDS011;40891;47.242;8.648;2022-10-26T14:29:55;6.65;;;1.35;;
54993;SDS011;40891;47.242;8.648;2022-10-26T14:32:28;7.85;;;1.40;;
54993;SDS011;40891;47.242;8.648;2022-10-26T14:35:00;3.28;;;0.95;;
54993;SDS011;40891;47.242;8.648;2022-10-26T14:37:33;5.30;;;1.30;;
54993;SDS011;40891;47.242;8.648;2022-10-26T14:40:03;4.22;;;1.35;;
54993;SDS011;40891;47.242;8.648;2022-10-26T14:42:33;6.22;;;1.63;;
54993;SDS011;40891;47.242;8.648;2022-10-26T14:45:02;3.95;;;1.30;;
54993;SDS011;40891;47.242;8.648;2022-10-26T14:47:28;4.15;;;1.38;;
54993;SDS011;40891;47.242;8.648;2022-10-26T14:49:56;7.63;;;1.20;;
54993;SDS011;40891;47.242;8.648;2022-10-26T14:52:28;2.88;;;1.20;;
54993;SDS011;40891;47.242;8.648;2022-10-26T14:57:33;5.05;;;1.30;;
54993;SDS011;40891;47.242;8.648;2022-10-26T15:00:09;8.57;;;1.50;;
54993;SDS011;40891;47.242;8.648;2022-10-26T15:02:41;5.95;;;1.85;;
54993;SDS011;40891;47.242;8.648;2022-10-26T15:07:49;8.45;;;1.90;;
54993;SDS011;40891;47.242;8.648;2022-10-26T15:10:36;10.05;;;1.73;;
54993;SDS011;40891;47.242;8.648;2022-10-26T15:13:45;7.07;;;1.60;;
54993;SDS011;40891;47.242;8.648;2022-10-26T15:15:56;7.50;;;2.40;;
54993;SDS011;40891;47.242;8.648;2022-10-26T15:18:32;5.63;;;1.73;;
54993;SDS011;40891;47.242;8.648;2022-10-26T15:20:59;3.92;;;1.50;;
54993;SDS011;40891;47.242;8.648;2022-10-26T15:23:25;7.75;;;1.63;;
54993;SDS011;40891;47.242;8.648;2022-10-26T15:25:54;7.38;;;1.73;;
54993;SDS011;40891;47.242;8.648;2022-10-26T15:28:22;6.53;;;1.63;;
54993;SDS011;40891;47.242;8.648;2022-10-26T15:33:34;5.35;;;1.73;;
54993;SDS011;40891;47.242;8.648;2022-10-26T15:38:32;5.40;;;1.80;;
54993;SDS011;40891;47.242;8.648;2022-10-26T15:40:58;9.05;;;1.90;;
54993;SDS011;40891;47.242;8.648;2022-10-26T15:43:24;6.40;;;2.00;;
54993;SDS011;40891;47.242;8.648;2022-10-26T15:45:49;8.48;;;2.22;;
54993;SDS011;40891;47.242;8.648;2022-10-26T15:48:21;6.63;;;1.70;;
54993;SDS011;40891;47.242;8.648;2022-10-26T15:50:51;5.47;;;2.05;;
54993;SDS011;40891;47.242;8.648;2022-10-26T15:53:18;5.50;;;2.10;;
54993;SDS011;40891;47.242;8.648;2022-10-26T15:55:45;7.13;;;2.05;;
54993;SDS011;40891;47.242;8.648;2022-10-26T15:58:12;9.30;;;1.70;;
54993;SDS011;40891;47.242;8.648;2022-10-26T16:00:38;6.05;;;1.92;;
54993;SDS011;40891;47.242;8.648;2022-10-26T16:03:03;12.43;;;2.03;;
54993;SDS011;40891;47.242;8.648;2022-10-26T16:05:29;5.25;;;1.75;;
54993;SDS011;40891;47.242;8.648;2022-10-26T16:07:54;5.53;;;1.85;;
54993;SDS011;40891;47.242;8.648;2022-10-26T16:10:21;5.78;;;2.03;;
54993;SDS011;40891;47.242;8.648;2022-10-26T16:12:47;8.77;;;1.75;;
54993;SDS011;40891;47.242;8.648;2022-10-26T16:15:15;6.18;;;2.05;;
54993;SDS011;40891;47.242;8.648;2022-10-26T16:17:47;5.40;;;1.73;;
54993;SDS011;40891;47.242;8.648;2022-10-26T16:20:14;6.68;;;1.90;;
54993;SDS011;40891;47.242;8.648;2022-10-26T16:22:41;7.53;;;2.00;;
54993;SDS011;40891;47.242;8.648;2022-10-26T16:25:12;4.90;;;1.75;;
54993;SDS011;40891;47.242;8.648;2022-10-26T16:27:37;8.07;;;1.75;;
54993;SDS011;40891;47.242;8.648;2022-10-26T16:30:03;8.52;;;2.15;;
54993;SDS011;40891;47.242;8.648;2022-10-26T16:32:29;5.45;;;1.50;;
54993;SDS011;40891;47.242;8.648;2022-10-26T16:34:54;9.20;;;2.00;;
54993;SDS011;40891;47.242;8.648;2022-10-26T16:37:19;10.15;;;2.20;;
54993;SDS011;40891;47.242;8.648;2022-10-26T16:39:45;7.93;;;2.10;;
54993;SDS011;40891;47.242;8.648;2022-10-26T16:42:10;13.70;;;2.80;;
54993;SDS011;40891;47.242;8.648;2022-10-26T16:44:35;7.32;;;2.42;;
54993;SDS011;40891;47.242;8.648;2022-10-26T16:47:01;9.05;;;3.00;;
54993;SDS011;40891;47.242;8.648;2022-10-26T16:49:27;8.93;;;2.50;;
54993;SDS011;40891;47.242;8.648;2022-10-26T16:51:52;11.63;;;2.60;;
54993;SDS011;40891;47.242;8.648;2022-10-26T16:54:18;8.32;;;2.55;;
54993;SDS011;40891;47.242;8.648;2022-10-26T16:56:43;5.70;;;2.13;;
54993;SDS011;40891;47.242;8.648;2022-10-26T16:59:08;8.02;;;2.10;;
54993;SDS011;40891;47.242;8.648;2022-10-26T17:01:34;4.60;;;2.10;;
54993;SDS011;40891;47.242;8.648;2022-10-26T17:04:00;10.48;;;2.53;;
54993;SDS011;40891;47.242;8.648;2022-10-26T17:06:27;8.32;;;3.38;;
54993;SDS011;40891;47.242;8.648;2022-10-26T17:08:52;9.43;;;2.83;;
54993;SDS011;40891;47.242;8.648;2022-10-26T17:11:19;7.78;;;2.50;;
54993;SDS011;40891;47.242;8.648;2022-10-26T17:13:45;11.02;;;2.60;;
54993;SDS011;40891;47.242;8.648;2022-10-26T17:16:12;9.93;;;2.58;;
54993;SDS011;40891;47.242;8.648;2022-10-26T17:18:39;10.00;;;2.60;;